메인 페이지
METAR-TAF:

METAR-TAF

공항 :

Lawson Army Airfield

콜럼버스, 조지아, 미국

위도: 32-20N, 경도: 084-50W, 고도: 71m

현재 날씨관측

예보는 38분 전, 11:56시(UTC)에 발표되었습니다.
5kt
온도 6°C
습도 81%
기압 1026 hPa
시정: 16.1km
고도 1500ft 상공 흐림

METAR: KLSF 111156Z COR AUTO 27005KT 10SM OVC015 06/03 A3031 RMK AO2 SLPNO ALSTG ESTMD 70002 T00610032 10058 20057 52019 $ COR 1158

시각: 07:34 (12:34 UTC)

예보

예보는 3 시간 34분 전, 09:00시(UTC)에 발표되었습니다.
예보 대상 시간: 11일 09시부터 12일 15시까지 (UTC)
북서6kt
시정 10km 이상
고도 1000ft 상공 흐림
일시적
11일 09시부터 11일 11시까지 (UTC)
고도 700ft 상공 흐림
일시적
11일 11시부터 11일 13시까지 (UTC)
고도 1500ft 상공 구름 보통
전환 중
11일 12시부터 11일 13시까지 (UTC)
서북서6kt
시정 10km 이상
고도 2000ft 상공 구름 조금
전환 중
11일 17시부터 11일 18시까지 (UTC)
6kt
시정 10km 이상
맑음

TAF: KLSF 110900Z 1109/1215 32006KT 9999 OVC010 QNH3022INS TEMPO 1109/1111 OVC007 TEMPO 1111/1113 SCT015 BECMG 1112/1113 30006KT 9999 FEW020 QNH3020INS BECMG 1117/1118 27006KT 9999 SKC QNH3027INS TX13/1120Z TN02/1112Z

4,000개 이상의 공항 관측 자료 및 예보 (METAR 및 TAF 보고).

지도상에서 검색 가능한 기상관측소가 노란 점과 빨간 점으로 표시되어 있습니다.

기상관측소 명을 보려면 표시 위로 마우스를 이동하세요.

날씨 관측과 예보를 보려면 클릭하세요.

지도 변경 : 확대하려면 엑스 표시가 있는 녹색 버튼, 축소하려면 빼기 표시가 있는 녹색 버튼, 다음 페이지의 지도를 보려면 녹색 화살표를 클릭하세요.


METAR-TAF: